Time;durP1;ratioP1;P1;durP2;ratioP2;P2;SDS_P1;SDS_P2;PMS_P1;PMS_P2;Temp;Humidity;BMP_temperature;BMP_pressure;BME280_temperature;BME280_humidity;BME280_pressure;Samples;Min_cycle;Max_cycle;Signal;HPM_P1;HPM_P2
2022/12/24 00:02:13;;;;;;;;;;;11.90;99.90;;;;;;5067321;28;19958;-70
2022/12/24 00:04:39;;;;;;;;;;;11.90;99.90;;;;;;5070603;28;19912;-71
2022/12/24 00:07:04;;;;;;;;;;;11.90;99.90;;;;;;5068672;28;19985;-68
2022/12/24 00:09:29;;;;;;;;;;;11.90;99.90;;;;;;5066262;28;19979;-70
2022/12/24 00:11:55;;;;;;;;;;;11.80;99.90;;;;;;5068519;28;19934;-70
2022/12/24 00:14:20;;;;;;;;;;;11.90;99.90;;;;;;5067472;28;19921;-70
2022/12/24 00:16:46;;;;;;;;;;;11.80;99.90;;;;;;5069102;28;19913;-70
2022/12/24 00:19:11;;;;;;;;;;;11.70;99.90;;;;;;5069916;28;19920;-71
2022/12/24 00:21:37;;;;;;;;;;;11.80;99.90;;;;;;5070082;28;19913;-70
2022/12/24 00:24:04;;;;;;;;;;;11.70;99.90;;;;;;5072791;28;19919;-70
2022/12/24 00:26:30;;;;;;;;;;;11.80;99.90;;;;;;5069776;28;19956;-70
2022/12/24 00:28:56;;;;;;;;;;;11.70;99.90;;;;;;5071484;28;19921;-70
2022/12/24 00:31:21;;;;;;;;;;;11.70;99.90;;;;;;5068526;28;19913;-70
2022/12/24 00:33:47;;;;;;;;;;;11.70;99.90;;;;;;5076523;28;19971;-70
2022/12/24 00:36:13;;;;;;;;;;;11.70;99.90;;;;;;5072729;28;20522;-70
2022/12/24 00:38:38;;;;;;;;;;;11.70;99.90;;;;;;5072981;28;20293;-69
2022/12/24 00:41:05;;;;;;;;;;;11.70;99.90;;;;;;5073276;28;19920;-69
2022/12/24 00:43:30;;;;;;;;;;;11.70;99.90;;;;;;5073817;28;19921;-69
2022/12/24 00:45:56;;;;;;;;;;;11.60;99.90;;;;;;5070523;28;19916;-71
2022/12/24 00:48:22;;;;;;;;;;;11.60;99.90;;;;;;5073390;28;20241;-70
2022/12/24 00:50:50;;;;;;;;;;;11.60;99.90;;;;;;5079449;28;19919;-67
2022/12/24 00:53:16;;;;;;;;;;;11.50;99.90;;;;;;5073029;28;19919;-69
2022/12/24 00:55:41;;;;;;;;;;;11.60;99.90;;;;;;5073031;28;19924;-69
2022/12/24 00:58:07;;;;;;;;;;;11.70;99.90;;;;;;5072423;28;20374;-70
2022/12/24 01:00:32;;;;;;;;;;;11.60;99.90;;;;;;5072829;28;19970;-70
2022/12/24 01:02:58;;;;;;;;;;;11.60;99.90;;;;;;5071041;28;19924;-70
2022/12/24 01:05:23;;;;;;;;;;;11.60;99.90;;;;;;5073201;28;20395;-70
2022/12/24 01:07:49;;;;;;;;;;;11.60;99.90;;;;;;5073630;28;19912;-70
2022/12/24 01:10:16;;;;;;;;;;;11.60;99.90;;;;;;5072576;28;20294;-69
2022/12/24 01:12:41;;;;;;;;;;;11.60;99.90;;;;;;5076932;28;19912;-69
2022/12/24 01:15:07;;;;;;;;;;;11.70;99.90;;;;;;5069915;28;19959;-70
2022/12/24 01:17:33;;;;;;;;;;;11.60;99.90;;;;;;5072103;28;19923;-69
2022/12/24 01:19:59;;;;;;;;;;;11.60;99.90;;;;;;5071923;28;20003;-70
2022/12/24 01:22:24;;;;;;;;;;;11.60;99.90;;;;;;5072447;28;19918;-70
2022/12/24 01:24:50;;;;;;;;;;;11.70;99.90;;;;;;5070621;28;20239;-70
2022/12/24 01:27:15;;;;;;;;;;;11.70;99.90;;;;;;5070855;28;19913;-69
2022/12/24 01:29:41;;;;;;;;;;;11.80;99.90;;;;;;5072321;28;19920;-69
2022/12/24 01:32:06;;;;;;;;;;;11.80;99.90;;;;;;5066432;28;19913;-69
2022/12/24 01:34:32;;;;;;;;;;;11.80;99.90;;;;;;5071963;28;19958;-68
2022/12/24 01:36:57;;;;;;;;;;;11.80;99.90;;;;;;5070162;28;19912;-69
2022/12/24 01:39:23;;;;;;;;;;;11.80;99.90;;;;;;5069528;28;20491;-70
2022/12/24 01:44:34;;;;;;;;;;;11.80;99.90;;;;;;5072199;28;19966;-70
2022/12/24 01:47:07;;;;;;;;;;;11.80;99.90;;;;;;5068798;28;19917;-69
2022/12/24 01:49:32;;;;;;;;;;;11.70;99.90;;;;;;5071954;28;20404;-71
2022/12/24 01:52:01;;;;;;;;;;;11.70;99.90;;;;;;5070799;28;19912;-70
2022/12/24 01:54:30;;;;;;;;;;;11.70;99.90;;;;;;5071248;28;19919;-70
2022/12/24 01:57:01;;;;;;;;;;;11.60;99.90;;;;;;5068750;28;19920;-70
2022/12/24 01:59:27;;;;;;;;;;;11.60;99.90;;;;;;5072087;28;19920;-69
2022/12/24 02:01:53;;;;;;;;;;;11.60;99.90;;;;;;5069495;28;19912;-70
2022/12/24 02:04:18;;;;;;;;;;;11.50;99.90;;;;;;5070602;28;20332;-70
2022/12/24 02:06:44;;;;;;;;;;;11.50;99.90;;;;;;5069690;28;19917;-69
2022/12/24 02:09:09;;;;;;;;;;;11.50;99.90;;;;;;5069159;28;19920;-69
2022/12/24 02:11:37;;;;;;;;;;;11.50;99.90;;;;;;5071692;28;20394;-69
2022/12/24 02:14:03;;;;;;;;;;;11.50;99.90;;;;;;5070372;28;19919;-70
2022/12/24 02:16:34;;;;;;;;;;;11.50;99.90;;;;;;5071071;28;20356;-69
2022/12/24 02:19:26;;;;;;;;;;;11.40;99.90;;;;;;5069339;28;20035;-69
2022/12/24 02:22:04;;;;;;;;;;;11.40;99.90;;;;;;5054378;28;19912;-69
2022/12/24 02:24:35;;;;;;;;;;;11.30;99.90;;;;;;5070040;28;19921;-71
2022/12/24 02:27:00;;;;;;;;;;;11.30;99.90;;;;;;5071116;28;19920;-68
2022/12/24 02:29:26;;;;;;;;;;;11.30;99.90;;;;;;5072938;28;20309;-69
2022/12/24 02:32:01;;;;;;;;;;;11.40;99.90;;;;;;5068675;28;20452;-69
2022/12/24 02:34:31;;;;;;;;;;;11.30;99.90;;;;;;5066401;28;19951;-70
2022/12/24 02:37:17;;;;;;;;;;;11.30;99.90;;;;;;5070540;28;19920;-69
2022/12/24 02:39:58;;;;;;;;;;;11.20;99.90;;;;;;5060922;28;19974;-70
2022/12/24 02:42:26;;;;;;;;;;;11.20;99.90;;;;;;5071831;28;19920;-70
2022/12/24 02:44:58;;;;;;;;;;;11.20;99.90;;;;;;5070532;28;19916;-69
2022/12/24 02:47:25;;;;;;;;;;;11.20;99.90;;;;;;5071450;28;20413;-70
2022/12/24 02:49:50;;;;;;;;;;;11.20;99.90;;;;;;5068884;28;19923;-67
2022/12/24 02:52:29;;;;;;;;;;;11.30;99.90;;;;;;5071066;28;19912;-69
2022/12/24 02:54:55;;;;;;;;;;;11.30;99.90;;;;;;5071679;28;20299;-72
2022/12/24 02:57:26;;;;;;;;;;;11.30;99.90;;;;;;5069471;28;19916;-69
2022/12/24 02:59:52;;;;;;;;;;;11.30;99.90;;;;;;5066636;28;19916;-69
2022/12/24 03:02:23;;;;;;;;;;;11.30;99.90;;;;;;5067487;28;19912;-69
2022/12/24 03:04:55;;;;;;;;;;;11.30;99.90;;;;;;5067402;28;21400;-69
2022/12/24 03:07:25;;;;;;;;;;;11.40;99.90;;;;;;5066901;28;19932;-69
2022/12/24 03:09:59;;;;;;;;;;;11.40;99.90;;;;;;5069462;28;19971;-69
2022/12/24 03:12:33;;;;;;;;;;;11.40;99.90;;;;;;5069405;28;20298;-70
2022/12/24 03:14:58;;;;;;;;;;;11.40;99.90;;;;;;5077332;28;20386;-70
2022/12/24 03:17:24;;;;;;;;;;;11.40;99.90;;;;;;5090493;22;19935;-67
2022/12/24 03:19:50;;;;;;;;;;;11.40;99.90;;;;;;5044285;28;19932;-66
2022/12/24 03:22:16;;;;;;;;;;;11.40;99.90;;;;;;5047182;28;19913;-65
2022/12/24 03:24:42;;;;;;;;;;;11.40;99.90;;;;;;5049627;28;20386;-63
2022/12/24 03:27:08;;;;;;;;;;;11.40;99.90;;;;;;5047487;28;19952;-63
2022/12/24 03:29:34;;;;;;;;;;;11.30;99.90;;;;;;5049614;28;19917;-65
2022/12/24 03:32:00;;;;;;;;;;;11.30;99.90;;;;;;5044340;28;19916;-66
2022/12/24 03:34:26;;;;;;;;;;;11.30;99.90;;;;;;5047618;28;19928;-65
2022/12/24 03:36:51;;;;;;;;;;;11.20;99.90;;;;;;5048065;28;19917;-65
2022/12/24 03:39:17;;;;;;;;;;;11.20;99.90;;;;;;5048692;28;20067;-65
2022/12/24 03:41:42;;;;;;;;;;;11.20;99.90;;;;;;5049532;28;19913;-67
2022/12/24 03:44:08;;;;;;;;;;;11.00;99.90;;;;;;5045458;28;20306;-65
2022/12/24 03:46:33;;;;;;;;;;;11.00;99.90;;;;;;5043132;28;19925;-66
2022/12/24 03:48:59;;;;;;;;;;;11.00;99.90;;;;;;5039593;28;19913;-65
2022/12/24 03:51:24;;;;;;;;;;;10.90;99.90;;;;;;5045886;28;19956;-65
2022/12/24 03:53:54;;;;;;;;;;;10.90;99.90;;;;;;5044576;28;19927;-65
2022/12/24 03:56:20;;;;;;;;;;;10.80;99.90;;;;;;5044218;28;19967;-65
2022/12/24 03:58:45;;;;;;;;;;;10.80;99.90;;;;;;5046811;28;20371;-65
2022/12/24 04:01:11;;;;;;;;;;;10.70;99.90;;;;;;5046648;28;19932;-64
2022/12/24 04:03:36;;;;;;;;;;;10.60;99.90;;;;;;5046340;28;19913;-65
2022/12/24 04:06:03;;;;;;;;;;;10.60;99.90;;;;;;5046953;28;19917;-64
2022/12/24 04:08:28;;;;;;;;;;;10.50;99.90;;;;;;5049057;28;19913;-65
2022/12/24 04:10:53;;;;;;;;;;;10.40;99.90;;;;;;5049667;28;20378;-65
2022/12/24 04:13:19;;;;;;;;;;;10.30;99.90;;;;;;5041436;28;20007;-65
2022/12/24 04:15:44;;;;;;;;;;;10.30;99.90;;;;;;5047549;28;19913;-65
2022/12/24 04:18:10;;;;;;;;;;;10.20;99.90;;;;;;5044305;28;20351;-64
2022/12/24 04:20:35;;;;;;;;;;;10.10;99.90;;;;;;5062806;28;19921;-63
2022/12/24 04:23:01;;;;;;;;;;;10.20;99.90;;;;;;5045045;28;19957;-66
2022/12/24 04:25:26;;;;;;;;;;;10.20;99.90;;;;;;5048891;28;20290;-65
2022/12/24 04:27:51;;;;;;;;;;;10.10;99.90;;;;;;5046108;28;20284;-65
2022/12/24 04:30:17;;;;;;;;;;;10.00;99.90;;;;;;5046779;28;19919;-66
2022/12/24 04:32:42;;;;;;;;;;;10.10;99.90;;;;;;5044989;28;19913;-66
2022/12/24 04:35:08;;;;;;;;;;;10.00;99.90;;;;;;5046178;28;20362;-65
2022/12/24 04:37:34;;;;;;;;;;;10.10;99.90;;;;;;5048260;28;19936;-66
2022/12/24 04:39:59;;;;;;;;;;;10.00;99.90;;;;;;5044499;28;20005;-65
2022/12/24 04:42:25;;;;;;;;;;;10.00;99.90;;;;;;5045852;28;19913;-66
2022/12/24 04:44:50;;;;;;;;;;;10.00;99.90;;;;;;5042045;28;19927;-66
2022/12/24 04:47:15;;;;;;;;;;;10.00;99.90;;;;;;5045800;28;20367;-66
2022/12/24 04:49:41;;;;;;;;;;;10.00;99.90;;;;;;5046142;28;19908;-66
2022/12/24 04:52:06;;;;;;;;;;;10.00;99.90;;;;;;5046215;28;20440;-65
2022/12/24 04:54:32;;;;;;;;;;;10.00;99.90;;;;;;5048525;28;19917;-66
2022/12/24 04:56:57;;;;;;;;;;;10.00;99.90;;;;;;5038022;28;20917;-66
2022/12/24 04:59:23;;;;;;;;;;;9.90;99.90;;;;;;5044154;28;20302;-66
2022/12/24 05:01:48;;;;;;;;;;;9.90;99.90;;;;;;5041561;28;20541;-67
2022/12/24 05:04:14;;;;;;;;;;;9.90;99.90;;;;;;5045372;28;19908;-66
2022/12/24 05:06:39;;;;;;;;;;;9.90;99.90;;;;;;5048546;28;19974;-66
2022/12/24 05:09:05;;;;;;;;;;;9.80;99.90;;;;;;5052237;28;19909;-66
2022/12/24 05:11:30;;;;;;;;;;;9.70;99.90;;;;;;5047085;28;19940;-66
2022/12/24 05:13:56;;;;;;;;;;;9.70;99.90;;;;;;5045659;28;19952;-66
2022/12/24 05:16:22;;;;;;;;;;;9.60;99.90;;;;;;5049183;28;20314;-66
2022/12/24 05:18:47;;;;;;;;;;;9.60;99.90;;;;;;5044827;28;20412;-67
2022/12/24 05:21:16;;;;;;;;;;;9.50;99.90;;;;;;5050568;28;19921;-67
2022/12/24 05:26:32;;;;;;;;;;;9.50;99.90;;;;;;5048840;28;19928;-67
2022/12/24 05:28:58;;;;;;;;;;;9.50;99.90;;;;;;5046963;28;19920;-66
2022/12/24 05:31:25;;;;;;;;;;;9.50;99.90;;;;;;5052189;28;19916;-66
2022/12/24 05:33:50;;;;;;;;;;;9.60;99.90;;;;;;5048131;28;21943;-66
2022/12/24 05:36:16;;;;;;;;;;;9.70;99.90;;;;;;5050863;28;19966;-65
2022/12/24 05:38:41;;;;;;;;;;;9.80;99.90;;;;;;5045627;28;20347;-66
2022/12/24 05:41:08;;;;;;;;;;;9.80;99.90;;;;;;5051400;28;19970;-66
2022/12/24 05:43:34;;;;;;;;;;;9.90;99.90;;;;;;5050562;28;19925;-66
2022/12/24 05:46:00;;;;;;;;;;;9.80;99.90;;;;;;5041748;28;19913;-66
2022/12/24 05:48:26;;;;;;;;;;;9.80;99.90;;;;;;5050735;28;20019;-66
2022/12/24 05:50:52;;;;;;;;;;;9.70;99.90;;;;;;5049262;28;20011;-66
2022/12/24 05:53:17;;;;;;;;;;;9.70;99.90;;;;;;5044732;28;20375;-66
2022/12/24 05:55:43;;;;;;;;;;;9.60;99.90;;;;;;5048340;28;19944;-67
2022/12/24 05:58:08;;;;;;;;;;;9.70;99.90;;;;;;5046009;28;19948;-66
2022/12/24 06:00:34;;;;;;;;;;;9.70;99.90;;;;;;5046448;28;19924;-67
2022/12/24 06:02:59;;;;;;;;;;;9.80;99.90;;;;;;5046453;28;19920;-67
2022/12/24 06:05:25;;;;;;;;;;;9.70;99.90;;;;;;5047531;28;20056;-67
2022/12/24 06:07:50;;;;;;;;;;;9.70;99.90;;;;;;5041416;28;20303;-67
2022/12/24 06:10:16;;;;;;;;;;;9.70;99.90;;;;;;5041090;28;19917;-67
2022/12/24 06:12:41;;;;;;;;;;;9.70;99.90;;;;;;5048490;28;19909;-67
2022/12/24 06:15:07;;;;;;;;;;;9.80;99.90;;;;;;5043447;28;19914;-67
2022/12/24 06:17:32;;;;;;;;;;;9.80;99.90;;;;;;5042620;28;20565;-67
2022/12/24 06:19:58;;;;;;;;;;;9.70;99.90;;;;;;5046662;28;19978;-66
2022/12/24 06:22:23;;;;;;;;;;;9.70;99.90;;;;;;5041735;28;19913;-66
2022/12/24 06:24:49;;;;;;;;;;;9.70;99.90;;;;;;5046393;28;19963;-66
2022/12/24 06:27:14;;;;;;;;;;;9.70;99.90;;;;;;5041630;28;19913;-67
2022/12/24 06:29:40;;;;;;;;;;;9.90;99.90;;;;;;5045878;28;19920;-67
2022/12/24 06:32:05;;;;;;;;;;;9.80;99.90;;;;;;5041079;28;21895;-66
2022/12/24 06:34:31;;;;;;;;;;;9.80;99.90;;;;;;5043369;28;19917;-65
2022/12/24 06:36:56;;;;;;;;;;;9.80;99.90;;;;;;5043531;28;19913;-66
2022/12/24 06:39:22;;;;;;;;;;;9.90;99.90;;;;;;5045035;28;19921;-66
2022/12/24 06:41:47;;;;;;;;;;;9.90;99.90;;;;;;5041766;28;19957;-66
2022/12/24 06:44:12;;;;;;;;;;;9.90;99.90;;;;;;5046511;28;19920;-65
2022/12/24 06:46:38;;;;;;;;;;;10.00;99.90;;;;;;5039999;28;20375;-65
2022/12/24 06:49:03;;;;;;;;;;;10.00;99.90;;;;;;5041708;28;19971;-65
2022/12/24 06:51:29;;;;;;;;;;;10.00;99.90;;;;;;5042024;28;19913;-66
2022/12/24 06:53:54;;;;;;;;;;;10.10;99.90;;;;;;5047590;28;19912;-65
2022/12/24 06:56:20;;;;;;;;;;;10.10;99.90;;;;;;5037729;28;19920;-66
2022/12/24 06:58:46;;;;;;;;;;;10.10;99.90;;;;;;5041838;28;20282;-66
2022/12/24 07:01:12;;;;;;;;;;;10.00;99.90;;;;;;5045085;28;20378;-66
2022/12/24 07:03:38;;;;;;;;;;;9.90;99.90;;;;;;5042582;28;20413;-66
2022/12/24 07:06:04;;;;;;;;;;;9.90;99.90;;;;;;5045600;28;20015;-65
2022/12/24 07:08:32;;;;;;;;;;;9.80;99.90;;;;;;5038485;28;19936;-65
2022/12/24 07:10:58;;;;;;;;;;;9.90;99.90;;;;;;5043051;28;19912;-66
2022/12/24 07:13:23;;;;;;;;;;;9.90;99.90;;;;;;5036995;28;19978;-66
2022/12/24 07:15:59;;;;;;;;;;;9.90;99.90;;;;;;5044568;28;19917;-66
2022/12/24 07:18:25;;;;;;;;;;;9.90;99.90;;;;;;5046068;28;19929;-66
2022/12/24 07:20:50;;;;;;;;;;;10.00;99.90;;;;;;5047270;28;19916;-66
2022/12/24 07:23:16;;;;;;;;;;;10.00;99.90;;;;;;5044131;28;19964;-66
2022/12/24 07:25:41;;;;;;;;;;;10.00;99.90;;;;;;5047396;28;20378;-66
2022/12/24 07:28:07;;;;;;;;;;;10.00;99.90;;;;;;5050581;28;19921;-66
2022/12/24 07:30:32;;;;;;;;;;;10.00;99.90;;;;;;5043637;28;19913;-66
2022/12/24 07:32:57;;;;;;;;;;;10.00;99.90;;;;;;5041681;28;19917;-66
2022/12/24 07:35:23;;;;;;;;;;;10.00;99.90;;;;;;5035140;28;19913;-66
2022/12/24 07:37:48;;;;;;;;;;;10.00;99.90;;;;;;5046792;28;19919;-66
2022/12/24 07:40:14;;;;;;;;;;;10.20;99.90;;;;;;5045113;28;19924;-66
2022/12/24 07:42:39;;;;;;;;;;;10.10;99.90;;;;;;5042681;28;19935;-65
2022/12/24 07:45:05;;;;;;;;;;;10.20;99.90;;;;;;5047682;28;19909;-66
2022/12/24 07:47:31;;;;;;;;;;;10.20;99.90;;;;;;5042964;28;19917;-65
2022/12/24 07:49:56;;;;;;;;;;;10.20;99.90;;;;;;5044503;28;20010;-65
2022/12/24 07:52:21;;;;;;;;;;;10.20;99.90;;;;;;5043141;28;19912;-67
2022/12/24 07:54:47;;;;;;;;;;;10.20;99.90;;;;;;5044126;28;19936;-66
2022/12/24 07:57:12;;;;;;;;;;;10.20;99.90;;;;;;5047265;28;19999;-66
2022/12/24 07:59:38;;;;;;;;;;;10.30;99.90;;;;;;5048976;28;19921;-67
2022/12/24 08:02:03;;;;;;;;;;;10.40;99.90;;;;;;5045362;28;19976;-67
2022/12/24 08:04:35;;;;;;;;;;;10.40;99.90;;;;;;5045734;28;19912;-64
2022/12/24 08:07:01;;;;;;;;;;;10.30;99.90;;;;;;5048927;28;19913;-66
2022/12/24 08:09:26;;;;;;;;;;;10.30;99.90;;;;;;5044605;28;19921;-66
2022/12/24 08:11:52;;;;;;;;;;;10.40;99.90;;;;;;5043624;28;19927;-64
2022/12/24 08:14:17;;;;;;;;;;;10.40;99.90;;;;;;5042089;28;19949;-65
2022/12/24 08:16:43;;;;;;;;;;;10.40;99.90;;;;;;5046729;28;19987;-66
2022/12/24 08:19:08;;;;;;;;;;;10.50;99.90;;;;;;5041218;28;20084;-62
2022/12/24 08:21:34;;;;;;;;;;;10.60;99.90;;;;;;5046748;28;19948;-61
2022/12/24 08:23:59;;;;;;;;;;;10.60;99.90;;;;;;5042282;28;19913;-62
2022/12/24 08:26:25;;;;;;;;;;;10.70;99.90;;;;;;5040283;28;19913;-62
2022/12/24 08:28:50;;;;;;;;;;;10.80;99.90;;;;;;5044584;28;19913;-61
2022/12/24 08:31:16;;;;;;;;;;;10.70;99.90;;;;;;5044860;28;19921;-60
2022/12/24 08:33:41;;;;;;;;;;;10.80;99.90;;;;;;5040095;28;20004;-62
2022/12/24 08:36:07;;;;;;;;;;;10.80;99.90;;;;;;5044538;28;19925;-62
2022/12/24 08:38:32;;;;;;;;;;;10.90;99.90;;;;;;5044182;28;19920;-61
2022/12/24 08:40:58;;;;;;;;;;;11.00;99.90;;;;;;5049331;28;20298;-61
2022/12/24 08:43:24;;;;;;;;;;;11.00;99.90;;;;;;5050011;28;20290;-62
2022/12/24 08:45:50;;;;;;;;;;;11.00;99.90;;;;;;5046269;28;19924;-62
2022/12/24 08:48:16;;;;;;;;;;;11.00;99.90;;;;;;5042920;28;20211;-62
2022/12/24 08:50:41;;;;;;;;;;;11.00;99.90;;;;;;5047537;28;19983;-61
2022/12/24 08:53:07;;;;;;;;;;;11.00;99.90;;;;;;5042574;28;20306;-62
2022/12/24 08:55:32;;;;;;;;;;;11.00;99.90;;;;;;5047099;28;19956;-57
2022/12/24 08:57:58;;;;;;;;;;;10.90;99.90;;;;;;5046824;28;19913;-57
2022/12/24 09:00:24;;;;;;;;;;;10.90;99.90;;;;;;5047897;28;20430;-61
2022/12/24 09:02:49;;;;;;;;;;;10.90;99.90;;;;;;5048186;28;20616;-61
2022/12/24 09:05:15;;;;;;;;;;;10.90;99.90;;;;;;5052111;28;20351;-61
2022/12/24 09:07:40;;;;;;;;;;;10.90;99.90;;;;;;5046890;28;19927;-60
2022/12/24 09:10:06;;;;;;;;;;;10.90;99.90;;;;;;5048702;28;19917;-61
2022/12/24 09:12:31;;;;;;;;;;;10.90;99.90;;;;;;5051962;28;19974;-62
2022/12/24 09:14:57;;;;;;;;;;;10.90;99.90;;;;;;5052636;28;20000;-62
2022/12/24 09:19:50;;;;;;;;;;;10.90;99.90;;;;;;5045021;28;19936;-59
2022/12/24 09:22:16;;;;;;;;;;;10.90;99.90;;;;;;5047004;28;19917;-59
2022/12/24 09:24:41;;;;;;;;;;;11.00;99.90;;;;;;5052318;28;19916;-59
2022/12/24 09:27:06;;;;;;;;;;;10.90;99.90;;;;;;5048055;28;19920;-60
2022/12/24 09:29:32;;;;;;;;;;;10.90;99.90;;;;;;5051741;28;19912;-57
2022/12/24 09:31:58;;;;;;;;;;;10.90;99.90;;;;;;5049714;28;20003;-59
2022/12/24 09:34:24;;;;;;;;;;;11.00;99.90;;;;;;5056996;28;20363;-59
2022/12/24 09:36:50;;;;;;;;;;;11.00;99.90;;;;;;5048421;28;19920;-59
2022/12/24 09:39:16;;;;;;;;;;;11.00;99.90;;;;;;5051634;28;19917;-59
2022/12/24 09:42:00;;;;;;;;;;;11.10;99.90;;;;;;5053447;28;20003;-59
2022/12/24 09:44:42;;;;;;;;;;;11.10;99.90;;;;;;5047078;28;20364;-57
2022/12/24 09:47:28;;;;;;;;;;;11.10;99.90;;;;;;5049690;28;19959;-59
2022/12/24 09:49:55;;;;;;;;;;;11.10;99.90;;;;;;5037027;28;20417;-58
2022/12/24 09:52:35;;;;;;;;;;;11.20;99.90;;;;;;5051935;28;19909;-59
2022/12/24 09:55:21;;;;;;;;;;;11.20;99.90;;;;;;5047837;28;20322;-59
2022/12/24 09:57:46;;;;;;;;;;;11.20;99.90;;;;;;5048436;28;19913;-59
2022/12/24 10:00:20;;;;;;;;;;;11.30;99.90;;;;;;5049096;28;20636;-59
2022/12/24 10:02:46;;;;;;;;;;;11.40;99.90;;;;;;5030838;28;19967;-59
2022/12/24 10:05:13;;;;;;;;;;;11.40;99.90;;;;;;5049622;28;19913;-57
2022/12/24 10:07:52;;;;;;;;;;;11.40;99.90;;;;;;5032697;28;19924;-59
2022/12/24 10:10:35;;;;;;;;;;;11.50;99.90;;;;;;5052711;28;19916;-58
2022/12/24 10:13:09;;;;;;;;;;;11.60;99.90;;;;;;5049923;28;19923;-58
2022/12/24 10:15:48;;;;;;;;;;;11.70;99.90;;;;;;5043744;28;19986;-58
2022/12/24 10:18:22;;;;;;;;;;;11.60;99.90;;;;;;5049021;28;19970;-58
2022/12/24 10:20:48;;;;;;;;;;;11.60;99.90;;;;;;5052795;28;20012;-60
2022/12/24 10:23:28;;;;;;;;;;;11.50;99.90;;;;;;5067466;28;20607;-58
2022/12/24 10:26:03;;;;;;;;;;;11.50;99.90;;;;;;5050233;28;20011;-59
2022/12/24 10:28:30;;;;;;;;;;;11.50;99.90;;;;;;5050378;28;19920;-57
2022/12/24 10:30:58;;;;;;;;;;;11.60;99.90;;;;;;5061780;28;19971;-59
2022/12/24 10:33:30;;;;;;;;;;;11.60;99.90;;;;;;5044686;28;19995;-58
2022/12/24 10:35:56;;;;;;;;;;;11.60;99.90;;;;;;5049754;28;19920;-58
2022/12/24 10:38:21;;;;;;;;;;;11.70;99.90;;;;;;5045215;28;19920;-59
2022/12/24 10:40:51;;;;;;;;;;;11.70;99.90;;;;;;5049786;28;20388;-59
2022/12/24 10:43:21;;;;;;;;;;;11.70;99.90;;;;;;5052404;28;19913;-57
2022/12/24 10:45:51;;;;;;;;;;;11.80;99.90;;;;;;5051141;28;19913;-59
2022/12/24 10:48:21;;;;;;;;;;;11.80;99.90;;;;;;5045952;28;19944;-59
2022/12/24 10:51:01;;;;;;;;;;;11.90;99.90;;;;;;5046088;28;19913;-59
2022/12/24 10:53:32;;;;;;;;;;;11.90;99.90;;;;;;5048753;28;19921;-59
2022/12/24 10:56:05;;;;;;;;;;;11.90;99.90;;;;;;5044970;28;19912;-60
2022/12/24 10:58:30;;;;;;;;;;;11.90;99.90;;;;;;5038666;28;19917;-57
2022/12/24 11:00:56;;;;;;;;;;;11.90;99.90;;;;;;5046851;28;19989;-58
2022/12/24 11:03:23;;;;;;;;;;;11.90;99.90;;;;;;5051555;28;19919;-62
2022/12/24 11:05:58;;;;;;;;;;;11.90;99.90;;;;;;5048848;28;19913;-58
2022/12/24 11:08:25;;;;;;;;;;;11.90;99.90;;;;;;5051259;28;19920;-59
2022/12/24 11:10:55;;;;;;;;;;;12.00;99.90;;;;;;5050669;28;19909;-59
2022/12/24 11:13:25;;;;;;;;;;;11.90;99.90;;;;;;5047980;28;19957;-58
2022/12/24 11:15:59;;;;;;;;;;;11.90;99.90;;;;;;5049688;28;20369;-59
2022/12/24 11:18:24;;;;;;;;;;;12.00;99.90;;;;;;5050941;28;20462;-58
2022/12/24 11:20:51;;;;;;;;;;;12.10;99.90;;;;;;5051856;28;20003;-58
2022/12/24 11:23:16;;;;;;;;;;;12.20;99.90;;;;;;5047456;28;20325;-58
2022/12/24 11:25:46;;;;;;;;;;;12.20;99.90;;;;;;5054552;28;19967;-57
2022/12/24 11:28:19;;;;;;;;;;;12.20;99.90;;;;;;5033574;28;19956;-58
2022/12/24 11:31:00;;;;;;;;;;;12.20;99.90;;;;;;5049360;28;19913;-58
2022/12/24 11:33:26;;;;;;;;;;;12.20;99.90;;;;;;5047307;28;20306;-58
2022/12/24 11:36:02;;;;;;;;;;;12.20;99.90;;;;;;5049025;28;19913;-56
2022/12/24 11:38:30;;;;;;;;;;;12.20;99.90;;;;;;5047057;28;19999;-59
2022/12/24 11:40:57;;;;;;;;;;;12.20;99.90;;;;;;5048289;28;19920;-58
2022/12/24 11:43:23;;;;;;;;;;;12.10;99.90;;;;;;5048271;28;19952;-58
2022/12/24 11:45:53;;;;;;;;;;;12.10;99.90;;;;;;5047308;28;19947;-57
2022/12/24 11:48:29;;;;;;;;;;;12.20;99.90;;;;;;5044629;28;19913;-59
2022/12/24 11:50:55;;;;;;;;;;;12.20;99.90;;;;;;5049277;28;20050;-59
2022/12/24 11:53:24;;;;;;;;;;;12.30;99.90;;;;;;5050070;28;19916;-58
2022/12/24 11:55:51;;;;;;;;;;;12.40;99.90;;;;;;5046518;28;19917;-58
2022/12/24 11:58:35;;;;;;;;;;;12.40;99.90;;;;;;5049521;28;19913;-59
2022/12/24 12:01:04;;;;;;;;;;;12.40;99.90;;;;;;5045004;28;19923;-58
2022/12/24 12:03:34;;;;;;;;;;;12.40;99.90;;;;;;5047775;28;19913;-59
2022/12/24 12:06:00;;;;;;;;;;;12.30;99.90;;;;;;5045082;28;19920;-58
2022/12/24 12:08:26;;;;;;;;;;;12.30;99.90;;;;;;5063523;28;19927;-57
2022/12/24 12:10:52;;;;;;;;;;;12.20;99.90;;;;;;5041845;28;19917;-59
2022/12/24 12:13:21;;;;;;;;;;;12.20;99.90;;;;;;5043200;28;19913;-58
2022/12/24 12:15:50;;;;;;;;;;;12.20;99.90;;;;;;5047656;28;19978;-56
2022/12/24 12:18:18;;;;;;;;;;;12.20;99.90;;;;;;5051592;28;19924;-55
2022/12/24 12:20:45;;;;;;;;;;;12.20;99.90;;;;;;5050749;28;20418;-56
2022/12/24 12:23:14;;;;;;;;;;;12.30;99.90;;;;;;5051224;28;19913;-59
2022/12/24 12:25:55;;;;;;;;;;;12.30;99.90;;;;;;5056878;28;20386;-58
2022/12/24 12:28:43;;;;;;;;;;;12.30;99.90;;;;;;5050258;28;19912;-59
2022/12/24 12:31:08;;;;;;;;;;;12.40;99.90;;;;;;5049079;28;19931;-59
2022/12/24 12:33:45;;;;;;;;;;;12.40;99.90;;;;;;5047138;28;20539;-58
2022/12/24 12:36:11;;;;;;;;;;;12.50;99.90;;;;;;5051303;28;19917;-59
2022/12/24 12:38:37;;;;;;;;;;;12.50;99.90;;;;;;5053082;28;19924;-59
2022/12/24 12:41:22;;;;;;;;;;;12.50;99.90;;;;;;5042823;28;20291;-58
2022/12/24 12:44:03;;;;;;;;;;;12.50;99.90;;;;;;5048939;28;19988;-58
2022/12/24 12:46:43;;;;;;;;;;;12.50;99.90;;;;;;5050845;28;19956;-59
2022/12/24 12:49:19;;;;;;;;;;;12.40;99.90;;;;;;5063180;28;19935;-62
2022/12/24 12:51:52;;;;;;;;;;;12.40;99.90;;;;;;5061575;28;20294;-62
2022/12/24 12:54:44;;;;;;;;;;;12.50;99.90;;;;;;5044564;28;19917;-61
2022/12/24 12:57:14;;;;;;;;;;;12.80;99.90;;;;;;5050328;28;20286;-61
2022/12/24 12:59:44;;;;;;;;;;;13.10;99.90;;;;;;5049164;28;20650;-58
2022/12/24 13:02:12;;;;;;;;;;;13.40;99.90;;;;;;5051197;28;19924;-61
2022/12/24 13:04:56;;;;;;;;;;;13.50;99.90;;;;;;5047858;28;20008;-61
2022/12/24 13:07:36;;;;;;;;;;;13.70;99.90;;;;;;5048740;28;19916;-60
2022/12/24 13:10:13;;;;;;;;;;;13.80;99.90;;;;;;5048541;28;19995;-60
2022/12/24 13:13:02;;;;;;;;;;;13.80;99.90;;;;;;5044939;28;20323;-60
2022/12/24 13:15:50;;;;;;;;;;;13.60;99.90;;;;;;5052327;28;19921;-60
2022/12/24 13:18:33;;;;;;;;;;;13.50;99.90;;;;;;5027071;28;20043;-62
2022/12/24 13:20:59;;;;;;;;;;;13.30;99.90;;;;;;5052309;28;19928;-62
2022/12/24 13:23:26;;;;;;;;;;;13.00;99.90;;;;;;5046599;28;19917;-61
2022/12/24 13:25:52;;;;;;;;;;;12.90;99.90;;;;;;5047633;28;19956;-60
2022/12/24 13:28:21;;;;;;;;;;;12.80;99.90;;;;;;5048417;28;19916;-60
2022/12/24 13:30:47;;;;;;;;;;;12.70;99.90;;;;;;5044370;28;20016;-60
2022/12/24 13:33:33;;;;;;;;;;;12.80;99.90;;;;;;5042347;28;19920;-58
2022/12/24 13:35:59;;;;;;;;;;;12.70;99.90;;;;;;5047536;28;19997;-60
2022/12/24 13:38:28;;;;;;;;;;;12.70;99.90;;;;;;5049842;28;19967;-60
2022/12/24 13:40:54;;;;;;;;;;;12.60;99.90;;;;;;5050978;28;19925;-59
2022/12/24 13:43:19;;;;;;;;;;;12.60;99.90;;;;;;5048491;28;19913;-60
2022/12/24 13:45:49;;;;;;;;;;;12.60;99.90;;;;;;5049487;28;20453;-60
2022/12/24 13:48:14;;;;;;;;;;;12.60;99.90;;;;;;5047812;28;19951;-61
2022/12/24 13:50:43;;;;;;;;;;;12.50;99.90;;;;;;5049275;28;20425;-59
2022/12/24 13:53:31;;;;;;;;;;;12.50;99.90;;;;;;5051374;28;19913;-58
2022/12/24 13:56:08;;;;;;;;;;;12.40;99.90;;;;;;5049358;28;20457;-61
2022/12/24 13:58:36;;;;;;;;;;;12.40;99.90;;;;;;5054936;28;19921;-60
2022/12/24 14:01:04;;;;;;;;;;;12.30;99.90;;;;;;5047786;28;19924;-60
2022/12/24 14:03:32;;;;;;;;;;;12.40;99.90;;;;;;5046199;28;20579;-60
2022/12/24 14:06:09;;;;;;;;;;;12.30;99.90;;;;;;5047942;28;20382;-57
2022/12/24 14:08:37;;;;;;;;;;;12.30;99.90;;;;;;5053351;28;19926;-61
2022/12/24 14:11:11;;;;;;;;;;;12.30;99.90;;;;;;5048186;28;19924;-61
2022/12/24 14:13:36;;;;;;;;;;;12.30;99.90;;;;;;5045920;28;19951;-57
2022/12/24 14:16:03;;;;;;;;;;;12.30;99.90;;;;;;5044698;28;19964;-57
2022/12/24 14:18:29;;;;;;;;;;;12.30;99.90;;;;;;5046458;28;20061;-56
2022/12/24 14:20:56;;;;;;;;;;;12.30;99.90;;;;;;5048292;28;19986;-57
2022/12/24 14:23:25;;;;;;;;;;;12.30;99.90;;;;;;5041391;28;19921;-59
2022/12/24 14:25:50;;;;;;;;;;;12.30;99.90;;;;;;5041890;28;19931;-59
2022/12/24 14:28:18;;;;;;;;;;;12.20;99.90;;;;;;5053011;28;19916;-58
2022/12/24 14:30:43;;;;;;;;;;;12.20;99.90;;;;;;5050359;28;19917;-57
2022/12/24 14:33:28;;;;;;;;;;;12.10;99.90;;;;;;5052104;28;20000;-55